createdAt,value
2022-11-21T00:00:28.026Z,1001.06
2022-11-21T00:01:28.217Z,1001.04
2022-11-21T00:02:28.061Z,1001.06
2022-11-21T00:03:28.062Z,1001.04
2022-11-21T00:04:28.338Z,1000.98
2022-11-21T00:05:27.965Z,1001.01
2022-11-21T00:06:27.954Z,1001.01
2022-11-21T00:07:28.094Z,1000.99
2022-11-21T00:08:28.045Z,1001.03
2022-11-21T00:09:27.947Z,1000.94
2022-11-21T00:10:28.018Z,1000.89
2022-11-21T00:11:27.958Z,1000.83
2022-11-21T00:12:27.923Z,1000.85
2022-11-21T00:13:27.970Z,1000.82
2022-11-21T00:14:28.223Z,1000.79
2022-11-21T00:15:27.920Z,1000.85
2022-11-21T00:16:27.865Z,1000.78
2022-11-21T00:17:27.970Z,1000.80
2022-11-21T00:18:27.871Z,1000.81
2022-11-21T00:19:27.866Z,1000.80
2022-11-21T00:20:27.874Z,1000.76
2022-11-21T00:21:27.806Z,1000.76
2022-11-21T00:22:27.795Z,1000.79
2022-11-21T00:23:27.830Z,1000.68
2022-11-21T00:24:28.124Z,1000.72
2022-11-21T00:25:27.872Z,1000.68
2022-11-21T00:26:27.748Z,1000.67
2022-11-21T00:27:27.909Z,1000.66
2022-11-21T00:28:27.771Z,1000.68
2022-11-21T00:29:27.869Z,1000.67
2022-11-21T00:30:27.810Z,1000.64
2022-11-21T00:31:27.786Z,1000.63
2022-11-21T00:32:27.727Z,1000.58
2022-11-21T00:33:27.778Z,1000.60
2022-11-21T00:34:28.039Z,1000.67
2022-11-21T00:35:27.723Z,1000.65
2022-11-21T00:36:27.711Z,1000.59
2022-11-21T00:37:27.653Z,1000.58
2022-11-21T00:38:27.660Z,1000.56
2022-11-21T00:39:27.601Z,1000.63
2022-11-21T00:40:27.632Z,1000.53
2022-11-21T00:41:27.611Z,1000.57
2022-11-21T00:42:27.681Z,1000.53
2022-11-21T00:43:27.686Z,1000.56
2022-11-21T00:44:28.000Z,1000.57
2022-11-21T00:45:27.610Z,1000.52
2022-11-21T00:46:27.582Z,1000.56
2022-11-21T00:47:27.610Z,1000.48
2022-11-21T00:48:27.561Z,1000.44
2022-11-21T00:49:27.582Z,1000.46
2022-11-21T00:50:27.559Z,1000.34
2022-11-21T00:51:27.611Z,1000.50
2022-11-21T00:52:27.567Z,1000.35
2022-11-21T00:53:27.477Z,1000.36
2022-11-21T00:54:27.780Z,1000.32
2022-11-21T00:55:27.459Z,1000.36
2022-11-21T00:56:27.492Z,1000.38
2022-11-21T00:57:27.459Z,1000.36
2022-11-21T00:58:27.491Z,1000.37
2022-11-21T00:59:27.444Z,1000.33
2022-11-21T01:00:27.510Z,1000.33
2022-11-21T01:01:27.586Z,1000.40
2022-11-21T01:02:27.452Z,1000.38
2022-11-21T01:03:27.396Z,1000.37
2022-11-21T01:04:27.674Z,1000.42
2022-11-21T01:05:27.390Z,1000.43
2022-11-21T01:06:27.390Z,1000.42
2022-11-21T01:07:27.437Z,1000.34
2022-11-21T01:08:27.375Z,1000.43
2022-11-21T01:09:27.393Z,1000.34
2022-11-21T01:10:27.484Z,1000.40
2022-11-21T01:11:27.438Z,1000.42
2022-11-21T01:12:27.357Z,1000.35
2022-11-21T01:13:27.311Z,1000.32
2022-11-21T01:14:27.706Z,1000.28
2022-11-21T01:15:27.288Z,1000.28
2022-11-21T01:16:27.342Z,1000.28
2022-11-21T01:17:36.509Z,1000.23
2022-11-21T01:18:27.369Z,1000.25
2022-11-21T01:19:27.231Z,1000.25
2022-11-21T01:20:27.207Z,1000.26
2022-11-21T01:21:27.299Z,1000.23
2022-11-21T01:23:40.948Z,1000.22
2022-11-21T01:24:40.867Z,1000.19
2022-11-21T01:25:40.923Z,1000.25
2022-11-21T01:26:40.812Z,1000.16
2022-11-21T01:27:40.816Z,1000.19
2022-11-21T01:28:40.791Z,1000.12
2022-11-21T01:29:40.781Z,1000.12
2022-11-21T01:30:40.781Z,1000.15
2022-11-21T01:31:40.802Z,1000.11
2022-11-21T01:32:40.796Z,1000.13
2022-11-21T01:33:40.783Z,1000.07
2022-11-21T01:34:40.760Z,1000.18
2022-11-21T01:35:40.783Z,1000.14
2022-11-21T01:36:40.772Z,1000.16
2022-11-21T01:37:40.752Z,1000.15
2022-11-21T01:38:40.766Z,1000.16
2022-11-21T01:39:40.766Z,1000.16
2022-11-21T01:40:40.740Z,1000.14
2022-11-21T01:41:40.749Z,1000.15
2022-11-21T01:42:40.716Z,1000.13
2022-11-21T01:43:40.783Z,1000.14
2022-11-21T01:44:40.736Z,1000.16
2022-11-21T01:45:40.634Z,1000.19
2022-11-21T01:46:40.661Z,1000.19
2022-11-21T01:47:40.664Z,1000.18
2022-11-21T01:48:40.659Z,1000.20
2022-11-21T01:49:40.628Z,1000.16
2022-11-21T01:50:40.609Z,1000.18
2022-11-21T01:51:40.651Z,1000.20
2022-11-21T01:52:40.623Z,1000.26
2022-11-21T01:53:40.624Z,1000.22
2022-11-21T01:54:40.632Z,1000.21
2022-11-21T01:55:40.656Z,1000.17
2022-11-21T01:56:40.624Z,1000.17
2022-11-21T01:57:40.617Z,1000.14
2022-11-21T01:58:40.643Z,1000.15
2022-11-21T01:59:40.523Z,1000.02
2022-11-21T02:00:40.648Z,1000.11
2022-11-21T02:01:40.598Z,1000.11
2022-11-21T02:02:50.085Z,1000.11
2022-11-21T02:03:40.572Z,1000.11
2022-11-21T02:06:13.869Z,999.99
2022-11-21T02:08:25.560Z,1000.04
2022-11-21T02:09:25.467Z,1000.00
2022-11-21T02:10:25.436Z,1000.05
2022-11-21T02:11:25.420Z,999.98
2022-11-21T02:12:25.447Z,999.96
2022-11-21T02:13:25.478Z,1000.00
2022-11-21T02:14:25.753Z,999.99
2022-11-21T02:15:25.400Z,999.99
2022-11-21T02:16:25.479Z,999.95
2022-11-21T02:17:25.495Z,1000.01
2022-11-21T02:18:25.472Z,999.97
2022-11-21T02:19:25.439Z,999.97
2022-11-21T02:20:25.369Z,999.90
2022-11-21T02:23:16.107Z,999.90
2022-11-21T02:25:28.466Z,999.95
2022-11-21T02:26:28.226Z,999.98
2022-11-21T02:27:28.196Z,999.95
2022-11-21T02:28:28.161Z,999.98
2022-11-21T02:29:28.259Z,999.93
2022-11-21T02:30:28.170Z,999.92
2022-11-21T02:31:28.242Z,999.91
2022-11-21T02:32:28.214Z,999.92
2022-11-21T02:33:28.139Z,999.90
2022-11-21T02:34:28.385Z,999.90
2022-11-21T02:35:28.230Z,999.92
2022-11-21T02:36:28.175Z,999.90
2022-11-21T02:37:28.080Z,999.84
2022-11-21T02:38:28.106Z,999.86
2022-11-21T02:39:28.105Z,999.84
2022-11-21T02:41:40.294Z,999.76
2022-11-21T02:43:53.151Z,999.80
2022-11-21T02:46:14.907Z,999.69
2022-11-21T02:47:24.489Z,999.73
2022-11-21T02:48:14.749Z,999.69
2022-11-21T02:49:14.653Z,999.62
2022-11-21T02:50:14.530Z,999.63
2022-11-21T02:51:24.859Z,999.65
2022-11-21T02:52:14.693Z,999.61
2022-11-21T02:53:14.586Z,999.66
2022-11-21T02:54:14.546Z,999.63
2022-11-21T02:55:14.500Z,999.57
2022-11-21T02:56:14.495Z,999.56
2022-11-21T02:57:14.519Z,999.60
2022-11-21T02:58:14.578Z,999.56
2022-11-21T02:59:14.582Z,999.61
2022-11-21T03:00:14.731Z,999.58
2022-11-21T03:01:14.527Z,999.55
2022-11-21T03:02:14.594Z,999.54
2022-11-21T03:03:14.483Z,999.55
2022-11-21T03:04:14.552Z,999.49
2022-11-21T03:05:14.456Z,999.52
2022-11-21T03:06:14.610Z,999.49
2022-11-21T03:07:14.699Z,999.53
2022-11-21T03:08:14.539Z,999.54
2022-11-21T03:09:14.455Z,999.60
2022-11-21T03:10:14.457Z,999.56
2022-11-21T03:11:14.357Z,999.50
2022-11-21T03:12:14.381Z,999.60
2022-11-21T03:13:14.424Z,999.63
2022-11-21T03:14:14.422Z,999.64
2022-11-21T03:15:14.334Z,999.61
2022-11-21T03:16:14.459Z,999.63
2022-11-21T03:17:14.455Z,999.63
2022-11-21T03:18:14.457Z,999.58
2022-11-21T03:19:14.361Z,999.62
2022-11-21T03:20:14.338Z,999.64
2022-11-21T03:21:14.403Z,999.58
2022-11-21T03:22:14.286Z,999.62
2022-11-21T03:23:14.332Z,999.64
2022-11-21T03:24:14.210Z,999.64
2022-11-21T03:25:14.280Z,999.69
2022-11-21T03:26:14.385Z,999.69
2022-11-21T03:27:14.197Z,999.69
2022-11-21T03:28:14.166Z,999.66
2022-11-21T03:29:14.317Z,999.68
2022-11-21T03:30:14.323Z,999.68
2022-11-21T03:31:14.244Z,999.69
2022-11-21T03:32:14.290Z,999.70
2022-11-21T03:33:14.172Z,999.71
2022-11-21T03:34:14.179Z,999.71
2022-11-21T03:35:14.227Z,999.71
2022-11-21T03:36:14.279Z,999.77
2022-11-21T03:37:14.123Z,999.70
2022-11-21T03:38:14.183Z,999.69
2022-11-21T03:39:14.268Z,999.69
2022-11-21T03:40:14.167Z,999.73
2022-11-21T03:41:14.120Z,999.71
2022-11-21T03:42:14.078Z,999.74
2022-11-21T03:43:14.067Z,999.70
2022-11-21T03:44:14.112Z,999.72
2022-11-21T03:45:14.164Z,999.79
2022-11-21T03:46:14.159Z,999.73
2022-11-21T03:47:14.136Z,999.79
2022-11-21T03:48:14.056Z,999.79
2022-11-21T03:49:14.048Z,999.79
2022-11-21T03:50:14.208Z,999.76
2022-11-21T03:51:14.118Z,999.76
2022-11-21T03:52:14.083Z,999.72
2022-11-21T03:53:13.955Z,999.74
2022-11-21T03:54:13.941Z,999.70
2022-11-21T03:55:14.019Z,999.68
2022-11-21T03:56:13.981Z,999.77
2022-11-21T03:57:14.153Z,999.74
2022-11-21T03:58:13.978Z,999.72
2022-11-21T03:59:13.939Z,999.72
2022-11-21T04:00:13.841Z,999.75
2022-11-21T04:01:14.128Z,999.71
2022-11-21T04:02:13.874Z,999.73
2022-11-21T04:03:13.783Z,999.75
2022-11-21T04:04:14.154Z,999.77
2022-11-21T04:05:13.970Z,999.74
2022-11-21T04:06:13.859Z,999.75
2022-11-21T04:07:13.974Z,999.78
2022-11-21T04:08:13.911Z,999.86
2022-11-21T04:09:14.031Z,999.87
2022-11-21T04:10:13.853Z,999.87
2022-11-21T04:11:13.817Z,999.88
2022-11-21T04:12:13.724Z,999.89
2022-11-21T04:13:13.928Z,999.99
2022-11-21T04:14:13.841Z,999.91
2022-11-21T04:15:14.230Z,999.93
2022-11-21T04:16:25.323Z,999.90
2022-11-21T04:18:28.235Z,999.84
2022-11-21T04:19:28.213Z,999.83
2022-11-21T04:20:27.868Z,999.90
2022-11-21T04:21:45.615Z,999.94
2022-11-21T04:24:01.568Z,999.94
2022-11-21T04:26:13.063Z,999.97
2022-11-21T04:27:12.748Z,999.96
2022-11-21T04:28:12.742Z,999.96
2022-11-21T04:30:26.328Z,999.93
2022-11-21T04:32:39.297Z,999.92
2022-11-21T04:33:39.230Z,999.95
2022-11-21T04:34:39.073Z,999.94
2022-11-21T04:36:58.388Z,999.92
2022-11-21T04:37:58.103Z,999.95
2022-11-21T04:38:58.043Z,999.95
2022-11-21T04:39:58.107Z,999.96
2022-11-21T04:40:58.106Z,999.94
2022-11-21T04:41:58.225Z,999.94
2022-11-21T04:42:58.146Z,999.96
2022-11-21T04:43:58.188Z,999.93
2022-11-21T04:44:58.288Z,999.99
2022-11-21T04:45:58.124Z,999.86
2022-11-21T04:47:02.309Z,999.95
2022-11-21T04:47:59.031Z,999.89
2022-11-21T04:48:58.082Z,999.93
2022-11-21T04:49:58.044Z,999.95
2022-11-21T04:50:58.101Z,999.97
2022-11-21T04:51:58.043Z,999.95
2022-11-21T04:52:58.044Z,999.96
2022-11-21T04:53:58.069Z,1000.01
2022-11-21T04:54:58.063Z,999.99
2022-11-21T04:55:57.986Z,999.97
2022-11-21T04:56:57.920Z,999.96
2022-11-21T04:57:57.996Z,999.98
2022-11-21T04:58:58.037Z,999.98
2022-11-21T04:59:57.949Z,999.90
2022-11-21T05:00:57.942Z,999.99
2022-11-21T05:01:57.883Z,1000.00
2022-11-21T05:02:57.925Z,999.97
2022-11-21T05:03:57.795Z,999.98
2022-11-21T05:04:57.957Z,1000.02
2022-11-21T05:05:57.921Z,1000.01
2022-11-21T05:06:57.867Z,1000.06
2022-11-21T05:07:57.852Z,1000.02
2022-11-21T05:08:58.001Z,1000.04
2022-11-21T05:09:57.927Z,1000.06
2022-11-21T05:10:57.883Z,1000.00
2022-11-21T05:11:57.862Z,999.98
2022-11-21T05:12:57.904Z,1000.05
2022-11-21T05:13:57.998Z,999.98
2022-11-21T05:14:57.772Z,999.94
2022-11-21T05:15:57.727Z,1000.07
2022-11-21T05:16:57.779Z,1000.00
2022-11-21T05:19:10.226Z,1000.04
2022-11-21T05:21:22.511Z,1000.01
2022-11-21T05:22:22.348Z,1000.02
2022-11-21T05:24:32.975Z,1000.10
2022-11-21T05:25:32.687Z,1000.09
2022-11-21T05:26:32.843Z,1000.10
2022-11-21T05:27:32.700Z,1000.07
2022-11-21T05:28:32.640Z,1000.10
2022-11-21T05:29:32.689Z,1000.07
2022-11-21T05:30:32.735Z,1000.08
2022-11-21T05:31:32.683Z,1000.07
2022-11-21T05:32:32.674Z,1000.08
2022-11-21T05:33:32.593Z,1000.05
2022-11-21T05:34:32.609Z,1000.10
2022-11-21T05:35:32.614Z,1000.08
2022-11-21T05:37:46.262Z,1000.15
2022-11-21T05:38:46.037Z,1000.07
2022-11-21T05:41:29.582Z,1000.07
2022-11-21T05:43:44.551Z,1000.10
2022-11-21T05:44:55.409Z,1000.09
2022-11-21T05:46:58.467Z,1000.12
2022-11-21T05:49:10.325Z,1000.08
2022-11-21T05:51:20.760Z,1000.07
2022-11-21T05:52:30.347Z,1000.12
2022-11-21T05:53:30.541Z,1000.12
2022-11-21T05:55:33.754Z,1000.14
2022-11-21T05:57:46.030Z,1000.06
2022-11-21T05:58:56.232Z,1000.07
2022-11-21T06:01:06.983Z,1000.06
2022-11-21T06:03:22.655Z,1000.05
2022-11-21T06:04:33.934Z,1000.08
2022-11-21T06:05:31.564Z,1000.03
2022-11-21T06:07:34.160Z,1000.13
2022-11-21T06:08:43.398Z,1000.07
2022-11-21T06:10:46.692Z,1000.06
2022-11-21T06:11:56.344Z,1000.10
2022-11-21T06:13:57.900Z,999.96
2022-11-21T06:16:56.838Z,1000.06
2022-11-21T06:19:18.695Z,1000.04
2022-11-21T06:20:29.647Z,1000.06
2022-11-21T06:21:28.347Z,1000.13
2022-11-21T06:24:19.378Z,1000.13
2022-11-21T06:26:27.361Z,1000.14
2022-11-21T06:28:40.125Z,1000.11
2022-11-21T06:30:51.808Z,1000.18
2022-11-21T06:33:06.788Z,1000.13
2022-11-21T06:34:17.328Z,1000.20
2022-11-21T06:36:20.854Z,1000.15
2022-11-21T06:38:33.555Z,1000.23
2022-11-21T06:40:44.650Z,1000.20
2022-11-21T06:43:00.192Z,1000.24
2022-11-21T06:44:11.139Z,1000.28
2022-11-21T06:45:11.147Z,1000.28
2022-11-21T06:46:12.474Z,1000.30
2022-11-21T06:48:15.542Z,1000.24
2022-11-21T06:50:25.992Z,1000.28
2022-11-21T06:52:39.830Z,1000.40
2022-11-21T06:54:56.295Z,1000.37
2022-11-21T06:57:09.047Z,1000.39
2022-11-21T06:58:20.397Z,1000.38
2022-11-21T06:59:18.464Z,1000.39
2022-11-21T07:00:08.989Z,1000.48
2022-11-21T07:01:19.626Z,1000.48
2022-11-21T07:03:26.200Z,1000.52
2022-11-21T07:04:26.335Z,1000.59
2022-11-21T07:05:26.128Z,1000.60
2022-11-21T07:06:26.131Z,1000.54
2022-11-21T07:07:26.071Z,1000.59
2022-11-21T07:08:26.135Z,1000.49
2022-11-21T07:09:33.276Z,1000.52
2022-11-21T07:10:27.209Z,1000.66
2022-11-21T07:11:35.020Z,1000.66
2022-11-21T07:12:26.123Z,1000.61
2022-11-21T07:13:26.037Z,1000.73
2022-11-21T07:14:25.989Z,1000.70
2022-11-21T07:15:25.970Z,1000.63
2022-11-21T07:16:26.317Z,1000.60
2022-11-21T07:17:26.061Z,1000.62
2022-11-21T07:18:25.954Z,1000.73
2022-11-21T07:19:26.263Z,1000.70
2022-11-21T07:20:26.031Z,1000.70
2022-11-21T07:21:25.937Z,1000.72
2022-11-21T07:22:25.920Z,1000.77
2022-11-21T07:23:25.896Z,1000.76
2022-11-21T07:24:25.902Z,1000.78
2022-11-21T07:25:25.882Z,1000.78
2022-11-21T07:26:25.915Z,1000.81
2022-11-21T07:27:26.127Z,1000.82
2022-11-21T07:28:25.905Z,1000.82
2022-11-21T07:29:26.155Z,1000.82
2022-11-21T07:30:25.864Z,1000.78
2022-11-21T07:31:25.828Z,1000.82
2022-11-21T07:32:25.912Z,1000.80
2022-11-21T07:33:25.848Z,1000.90
2022-11-21T07:34:25.852Z,1000.82
2022-11-21T07:35:25.769Z,1000.85
2022-11-21T07:36:25.754Z,1000.88
2022-11-21T07:37:25.786Z,1000.88
2022-11-21T07:38:25.769Z,1000.89
2022-11-21T07:39:25.916Z,1000.88
2022-11-21T07:40:25.801Z,1000.88
2022-11-21T07:41:25.727Z,1000.86
2022-11-21T07:42:25.770Z,1000.89
2022-11-21T07:43:25.838Z,1000.88
2022-11-21T07:44:25.684Z,1000.92
2022-11-21T07:45:25.733Z,1000.90
2022-11-21T07:46:25.735Z,1000.90
2022-11-21T07:47:25.749Z,1000.95
2022-11-21T07:48:25.663Z,1000.97
2022-11-21T07:50:37.420Z,1000.93
2022-11-21T07:52:53.043Z,1000.92
2022-11-21T07:53:52.691Z,1000.94
2022-11-21T07:54:52.668Z,1000.97
2022-11-21T07:55:52.671Z,1000.98
2022-11-21T07:56:52.720Z,1000.96
2022-11-21T07:57:52.698Z,1000.97
2022-11-21T07:58:52.689Z,1001.04
2022-11-21T07:59:52.755Z,1000.98
2022-11-21T08:00:52.649Z,1001.02
2022-11-21T08:01:52.733Z,1001.04
2022-11-21T08:02:52.753Z,1001.04
2022-11-21T08:03:52.678Z,1001.05
2022-11-21T08:04:52.631Z,1001.07
2022-11-21T08:05:52.720Z,1001.04
2022-11-21T08:06:52.665Z,1000.98
2022-11-21T08:07:28.028Z,1000.97
2022-11-21T08:08:28.066Z,1001.00
2022-11-21T08:10:40.984Z,1001.05
2022-11-21T08:11:41.072Z,1001.09
2022-11-21T08:12:40.890Z,1001.10
2022-11-21T08:13:40.899Z,1001.19
2022-11-21T08:14:40.889Z,1001.16
2022-11-21T08:15:40.907Z,1001.13
2022-11-21T08:16:40.896Z,1001.21
2022-11-21T08:17:40.893Z,1001.19
2022-11-21T08:18:41.049Z,1001.24
2022-11-21T08:19:40.911Z,1001.22
2022-11-21T08:20:40.893Z,1001.27
2022-11-21T08:21:40.803Z,1001.27
2022-11-21T08:22:40.879Z,1001.28
2022-11-21T08:23:40.800Z,1001.31
2022-11-21T08:24:40.990Z,1001.35
2022-11-21T08:25:40.779Z,1001.28
2022-11-21T08:26:40.728Z,1001.28
2022-11-21T08:27:40.758Z,1001.17
2022-11-21T08:28:40.744Z,1001.31
2022-11-21T08:29:41.037Z,1001.32
2022-11-21T08:30:41.030Z,1001.34
2022-11-21T08:31:40.812Z,1001.35
2022-11-21T08:32:41.067Z,1001.37
2022-11-21T08:34:55.438Z,1001.40
2022-11-21T08:38:26.365Z,1001.37
2022-11-21T08:40:42.603Z,1001.38
2022-11-21T08:43:54.021Z,1001.33
2022-11-21T08:45:11.948Z,1001.37
2022-11-21T08:47:11.580Z,1001.45
2022-11-21T08:49:46.205Z,1001.33
2022-11-21T08:52:12.159Z,1001.41
2022-11-21T08:54:33.134Z,1001.46
2022-11-21T08:55:43.267Z,1001.46
2022-11-21T08:58:00.603Z,1001.52
2022-11-21T08:59:13.831Z,1001.44
2022-11-21T09:01:25.969Z,1001.57
2022-11-21T09:04:15.490Z,1001.49
2022-11-21T09:06:36.670Z,1001.52
2022-11-21T09:08:51.446Z,1001.43
2022-11-21T09:10:53.310Z,1001.50
2022-11-21T09:13:05.368Z,1001.47
2022-11-21T09:15:17.767Z,1001.49
2022-11-21T09:16:20.449Z,1001.45
2022-11-21T09:18:30.934Z,1001.48
2022-11-21T09:20:50.894Z,1001.42
2022-11-21T09:22:03.670Z,1001.52
2022-11-21T09:23:07.292Z,1001.48
2022-11-21T09:25:25.399Z,1001.56
2022-11-21T09:28:02.253Z,1001.59
2022-11-21T09:30:48.021Z,1001.52
2022-11-21T09:34:03.613Z,1001.46
2022-11-21T09:35:19.161Z,1001.42
2022-11-21T09:37:32.391Z,1001.44
2022-11-21T09:40:49.041Z,1001.48
2022-11-21T09:42:04.856Z,1001.41
2022-11-21T09:44:17.132Z,1001.43
2022-11-21T09:46:28.916Z,1001.56
2022-11-21T09:49:06.676Z,1001.52
2022-11-21T09:51:27.536Z,1001.52
2022-11-21T09:55:04.849Z,1001.60
2022-11-21T09:56:04.433Z,1001.62
2022-11-21T09:57:16.345Z,1001.64
2022-11-21T09:58:04.424Z,1001.56
2022-11-21T10:01:33.719Z,1001.62
2022-11-21T10:04:06.328Z,1001.67
2022-11-21T10:05:05.944Z,1001.70
2022-11-21T10:06:17.178Z,1001.70
2022-11-21T10:08:30.357Z,1001.75
2022-11-21T10:10:49.685Z,1001.73
2022-11-21T10:13:02.028Z,1001.74
2022-11-21T10:14:13.059Z,1001.81
2022-11-21T10:16:14.991Z,1001.84
2022-11-21T10:18:27.042Z,1001.88
2022-11-21T10:20:40.132Z,1001.91
2022-11-21T10:21:40.035Z,1001.88
2022-11-21T10:22:40.033Z,1001.88
2022-11-21T10:23:48.172Z,1001.84
2022-11-21T10:24:39.971Z,1001.83
2022-11-21T10:26:51.522Z,1001.83
2022-11-21T10:28:01.554Z,1001.87
2022-11-21T10:28:51.530Z,1001.77
2022-11-21T10:29:51.421Z,1001.83
2022-11-21T10:30:51.300Z,1001.89
2022-11-21T10:31:51.301Z,1001.81
2022-11-21T10:32:51.329Z,1001.87
2022-11-21T10:33:51.367Z,1001.83
2022-11-21T10:34:51.260Z,1001.87
2022-11-21T10:35:51.262Z,1001.88
2022-11-21T10:36:51.214Z,1001.90
2022-11-21T10:37:51.300Z,1001.91
2022-11-21T10:40:06.423Z,1001.95
2022-11-21T10:42:25.752Z,1001.92
2022-11-21T10:43:40.180Z,1001.88
2022-11-21T10:44:25.853Z,1001.96
2022-11-21T10:45:35.769Z,1001.96
2022-11-21T10:47:37.089Z,1001.95
2022-11-21T10:49:53.755Z,1001.88
2022-11-21T10:51:04.623Z,1001.95
2022-11-21T10:53:06.483Z,1001.96
2022-11-21T10:55:20.128Z,1001.98
2022-11-21T10:57:46.155Z,1001.95
2022-11-21T11:00:00.533Z,1001.93
2022-11-21T11:03:10.217Z,1001.96
2022-11-21T11:05:19.658Z,1001.91
2022-11-21T11:08:22.537Z,1001.94
2022-11-21T11:09:09.954Z,1001.98
2022-11-21T11:12:12.145Z,1001.96
2022-11-21T11:14:25.484Z,1001.93
2022-11-21T11:16:41.480Z,1001.90
2022-11-21T11:19:01.111Z,1001.92
2022-11-21T11:20:11.326Z,1001.90
2022-11-21T11:23:36.281Z,1001.96
2022-11-21T11:24:57.634Z,1001.99
2022-11-21T11:26:49.595Z,1001.98
2022-11-21T11:28:05.348Z,1001.89
2022-11-21T11:29:47.751Z,1001.91
2022-11-21T11:32:00.354Z,1001.92
2022-11-21T11:33:00.148Z,1001.91
2022-11-21T11:34:15.073Z,1001.94
2022-11-21T11:35:12.758Z,1001.90
2022-11-21T11:37:21.716Z,1001.88
2022-11-21T11:40:21.002Z,1001.88
2022-11-21T11:41:30.665Z,1001.87
2022-11-21T11:44:19.697Z,1001.80
2022-11-21T11:46:32.505Z,1001.85
2022-11-21T18:58:25.434Z,999.78
2022-11-21T19:00:40.743Z,999.76
2022-11-21T19:03:05.103Z,999.79
2022-11-21T19:05:54.395Z,999.79
2022-11-21T19:06:54.336Z,999.76
2022-11-21T19:07:54.377Z,999.76
2022-11-21T19:08:54.261Z,999.74
2022-11-21T19:09:54.350Z,999.64
2022-11-21T19:10:54.362Z,999.61
2022-11-21T19:11:54.386Z,999.55
2022-11-21T19:12:54.208Z,999.55
2022-11-21T19:13:54.266Z,999.53
2022-11-21T19:14:54.310Z,999.53
2022-11-21T19:15:54.381Z,999.45
2022-11-21T19:16:54.221Z,999.47
2022-11-21T19:17:54.241Z,999.42
2022-11-21T19:19:55.179Z,999.41
2022-11-21T19:20:54.171Z,999.46
2022-11-21T19:21:54.239Z,999.45
2022-11-21T19:22:54.190Z,999.40
2022-11-21T19:23:54.147Z,999.36
2022-11-21T19:24:54.241Z,999.30
2022-11-21T19:25:54.130Z,999.25
2022-11-21T19:26:54.176Z,999.21
2022-11-21T19:27:54.133Z,999.20
2022-11-21T19:28:54.107Z,999.12
2022-11-21T19:29:54.076Z,999.17
2022-11-21T19:30:54.122Z,999.12
2022-11-21T19:31:54.149Z,999.14
2022-11-21T19:32:54.060Z,999.16
2022-11-21T19:33:54.026Z,999.19
2022-11-21T19:34:54.111Z,999.18
2022-11-21T19:35:53.992Z,999.17
2022-11-21T19:36:54.078Z,999.16
2022-11-21T19:37:54.020Z,999.14
2022-11-21T19:38:54.021Z,999.07
2022-11-21T19:39:53.993Z,999.07
2022-11-21T19:40:54.010Z,998.96
2022-11-21T19:41:53.927Z,998.94
2022-11-21T19:42:53.977Z,998.93
2022-11-21T19:43:53.941Z,998.93
2022-11-21T19:44:54.003Z,998.92
2022-11-21T19:45:58.021Z,998.88
2022-11-21T19:46:54.032Z,998.83
2022-11-21T19:47:54.101Z,998.87
2022-11-21T19:48:53.841Z,998.86
2022-11-21T19:49:53.864Z,998.84
2022-11-21T19:50:58.162Z,998.83
2022-11-21T19:51:53.903Z,998.83
2022-11-21T19:52:53.948Z,998.83
2022-11-21T19:53:53.864Z,998.80
2022-11-21T19:54:53.799Z,998.74
2022-11-21T19:55:53.792Z,998.74
2022-11-21T19:56:53.765Z,998.84
2022-11-21T19:57:53.810Z,998.78
2022-11-21T19:58:53.876Z,998.83
2022-11-21T19:59:53.814Z,998.86
2022-11-21T20:00:53.822Z,998.87
2022-11-21T20:01:53.840Z,998.84
2022-11-21T20:02:53.879Z,998.88
2022-11-21T20:03:53.854Z,998.88
2022-11-21T20:04:53.906Z,998.88
2022-11-21T20:05:53.794Z,998.84
2022-11-21T20:06:53.745Z,998.86
2022-11-21T20:07:55.617Z,998.86
2022-11-21T20:08:54.872Z,998.89
2022-11-21T20:09:53.834Z,998.91
2022-11-21T20:10:53.617Z,998.85
2022-11-21T20:11:53.803Z,998.90
2022-11-21T20:12:53.683Z,998.94
2022-11-21T20:13:53.768Z,998.91
2022-11-21T20:14:53.770Z,998.92
2022-11-21T20:15:53.657Z,998.91
2022-11-21T20:16:53.607Z,998.90
2022-11-21T20:17:53.628Z,998.96
2022-11-21T20:18:53.724Z,998.89
2022-11-21T20:19:53.591Z,998.86
2022-11-21T20:20:53.505Z,998.89
2022-11-21T20:21:53.654Z,998.88
2022-11-21T20:22:53.582Z,998.80
2022-11-21T20:23:53.691Z,998.84
2022-11-21T20:24:53.633Z,998.83
2022-11-21T20:25:53.515Z,998.82
2022-11-21T20:26:53.517Z,998.77
2022-11-21T20:27:53.486Z,998.74
2022-11-21T20:28:53.544Z,998.71
2022-11-21T20:29:53.526Z,998.78
2022-11-21T20:30:53.462Z,998.74
2022-11-21T20:31:53.505Z,998.72
2022-11-21T20:32:53.442Z,998.73
2022-11-21T20:33:53.509Z,998.65
2022-11-21T20:34:53.493Z,998.73
2022-11-21T20:35:53.431Z,998.70
2022-11-21T20:36:53.512Z,998.72
2022-11-21T20:37:53.397Z,998.64
2022-11-21T20:38:53.401Z,998.67
2022-11-21T20:39:53.353Z,998.67
2022-11-21T20:40:53.424Z,998.68
2022-11-21T20:41:53.406Z,998.79
2022-11-21T20:42:53.338Z,998.76
2022-11-21T20:44:41.780Z,998.73
2022-11-21T20:45:54.325Z,998.79
2022-11-21T20:46:09.791Z,998.84
2022-11-21T20:46:54.272Z,998.84
2022-11-21T20:47:53.310Z,998.84
2022-11-21T20:48:53.317Z,998.86
2022-11-21T20:49:53.278Z,998.83
2022-11-21T20:53:44.009Z,998.87
2022-11-21T20:53:50.388Z,998.93
2022-11-21T20:53:58.553Z,998.83
2022-11-21T20:54:54.193Z,998.90
2022-11-21T20:55:53.218Z,998.94
2022-11-21T20:56:53.199Z,998.93
2022-11-21T20:57:53.159Z,998.90
2022-11-21T20:58:53.130Z,998.92
2022-11-21T20:59:53.170Z,998.95
2022-11-21T21:00:53.137Z,998.99
2022-11-21T21:01:53.283Z,999.02
2022-11-21T21:02:53.195Z,999.04
2022-11-21T21:03:53.167Z,999.03
2022-11-21T21:04:53.281Z,999.06
2022-11-21T21:05:53.116Z,999.09
2022-11-21T21:06:53.162Z,999.12
2022-11-21T21:07:53.114Z,999.14
2022-11-21T21:08:53.195Z,999.21
2022-11-21T21:09:53.239Z,999.12
2022-11-21T21:11:05.838Z,999.09
2022-11-21T21:11:54.258Z,999.12
2022-11-21T21:12:53.276Z,999.07
2022-11-21T21:13:52.964Z,999.00
2022-11-21T21:14:52.956Z,999.05
2022-11-21T21:15:53.008Z,999.04
2022-11-21T21:16:53.003Z,998.96
2022-11-21T21:17:53.011Z,998.98
2022-11-21T21:18:52.957Z,999.06
2022-11-21T21:19:53.047Z,999.07
2022-11-21T21:21:15.540Z,999.10
2022-11-21T21:21:53.957Z,999.13
2022-11-21T21:22:52.892Z,999.14
2022-11-21T21:23:52.898Z,999.11
2022-11-21T21:24:52.835Z,999.06
2022-11-21T21:25:52.975Z,999.11
2022-11-21T21:26:52.929Z,999.06
2022-11-21T21:27:53.109Z,999.17
2022-11-21T21:28:52.832Z,999.19
2022-11-21T21:29:52.842Z,999.22
2022-11-21T21:30:52.787Z,999.28
2022-11-21T21:31:53.206Z,999.29
2022-11-21T21:32:52.821Z,999.29
2022-11-21T21:33:52.797Z,999.26
2022-11-21T21:34:52.737Z,999.26
2022-11-21T21:35:52.740Z,999.26
2022-11-21T21:36:52.750Z,999.26
2022-11-21T21:37:52.755Z,999.22
2022-11-21T21:38:52.754Z,999.28
2022-11-21T21:39:52.799Z,999.26
2022-11-21T21:40:52.733Z,999.30
2022-11-21T21:41:52.710Z,999.24
2022-11-21T21:42:52.715Z,999.26
2022-11-21T21:43:52.683Z,999.20
2022-11-21T21:44:52.679Z,999.22
2022-11-21T21:45:52.668Z,999.21
2022-11-21T21:46:52.669Z,999.21
2022-11-21T21:47:52.666Z,999.15
2022-11-21T21:48:52.785Z,999.16
2022-11-21T21:52:16.055Z,999.15
2022-11-21T21:54:34.398Z,999.20
2022-11-21T21:55:34.012Z,999.20
2022-11-21T21:56:33.994Z,999.20
2022-11-21T21:57:36.731Z,999.30
2022-11-21T21:58:33.986Z,999.27
2022-11-21T21:59:33.995Z,999.24
2022-11-21T22:00:42.758Z,999.33
2022-11-21T22:01:34.236Z,999.36
2022-11-21T22:02:33.952Z,999.29
2022-11-21T22:03:33.960Z,999.32
2022-11-21T22:04:33.934Z,999.29
2022-11-21T22:05:33.950Z,999.30
2022-11-21T22:06:33.903Z,999.27
2022-11-21T22:07:33.985Z,999.23
2022-11-21T22:08:33.877Z,999.17
2022-11-21T22:09:33.864Z,999.18
2022-11-21T22:10:33.876Z,999.13
2022-11-21T22:11:33.861Z,999.09
2022-11-21T22:12:33.843Z,999.03
2022-11-21T22:13:33.829Z,998.92